Weston, Missouri
Current Conditions -  °F | °C
As of 6:21 AM on Sunday 21 Dec 2014 (Local Time) from KMCI Reporting Station
Overcast Overcast  
Wind Chill: 29°   Ceiling: 1400
Heat Index: 38°   Visibility: 10mi
Dew Point: 35°   Wind: 15mph
Humidity: 89%   Direction: 200°SSW
Pressure: 30.04"   Gusts: NA
Location:  39.41°N, 94.9°W
Report Text: KMCI 211221Z 20013KT 10SM OVC014 03/02 A3004 RMK AO2 T00330017 $
Loading
Personal Weather Stations






























Interactive Weather Map New forecast layout! Learn more

10-Day Weather Forecast

Advertisements
Track Severe Weather on mobile